createdAt,value
2022-12-14T00:00:24.396Z,-4.40
2022-12-14T00:05:31.456Z,-4.50
2022-12-14T00:10:40.554Z,-4.40
2022-12-14T00:15:47.550Z,-4.40
2022-12-14T00:20:54.316Z,-4.40
2022-12-14T00:26:02.852Z,-4.40
2022-12-14T00:31:10.069Z,-4.30
2022-12-14T00:36:17.218Z,-4.30
2022-12-14T00:41:24.329Z,-4.30
2022-12-14T00:46:31.658Z,-4.40
2022-12-14T00:51:39.374Z,-4.50
2022-12-14T00:56:46.278Z,-4.50
2022-12-14T01:01:53.642Z,-4.40
2022-12-14T01:07:00.748Z,-4.40
2022-12-14T01:12:07.851Z,-4.30
2022-12-14T01:17:14.682Z,-4.40
2022-12-14T01:22:21.458Z,-4.30
2022-12-14T01:27:28.371Z,-4.30
2022-12-14T01:32:36.723Z,-4.30
2022-12-14T01:37:43.519Z,-4.20
2022-12-14T01:42:50.628Z,-4.30
2022-12-14T01:48:01.215Z,-4.20
2022-12-14T01:53:14.092Z,-4.40
2022-12-14T01:58:26.812Z,-4.30
2022-12-14T02:03:43.950Z,-4.20
2022-12-14T02:08:53.946Z,-4.20
2022-12-14T02:14:01.018Z,-4.20
2022-12-14T02:19:08.037Z,-4.00
2022-12-14T02:24:37.156Z,-4.20
2022-12-14T02:30:19.616Z,-4.20
2022-12-14T02:36:02.807Z,-4.10
2022-12-14T02:41:39.155Z,-4.20
2022-12-14T02:47:18.467Z,-4.10
2022-12-14T02:53:04.812Z,-4.10
2022-12-14T02:58:21.731Z,-4.10
2022-12-14T03:03:28.793Z,-4.10
2022-12-14T03:08:38.056Z,-4.20
2022-12-14T03:14:01.092Z,-4.10
2022-12-14T03:19:20.497Z,-4.10
2022-12-14T03:24:31.521Z,-4.10
2022-12-14T03:29:55.534Z,-4.00
2022-12-14T03:35:20.627Z,-4.10
2022-12-14T03:40:34.590Z,-4.20
2022-12-14T03:46:09.691Z,-4.20
2022-12-14T03:51:52.229Z,-4.50
2022-12-14T03:57:46.774Z,-4.20
2022-12-14T04:03:11.949Z,-4.20
2022-12-14T04:08:53.489Z,-4.30
2022-12-14T04:14:22.420Z,-4.20
2022-12-14T04:19:45.896Z,-4.10
2022-12-14T04:25:24.029Z,-4.10
2022-12-14T04:30:34.076Z,-4.00
2022-12-14T04:35:43.065Z,-4.10
2022-12-14T04:40:56.975Z,-4.00
2022-12-14T04:46:10.146Z,-4.10
2022-12-14T04:52:01.942Z,-4.10
2022-12-14T04:57:17.388Z,-4.00
2022-12-14T05:02:44.191Z,-4.10
2022-12-14T05:08:06.923Z,-4.20
2022-12-14T05:13:27.116Z,-4.10
2022-12-14T05:18:38.357Z,-4.20
2022-12-14T05:23:45.086Z,-4.10
2022-12-14T05:28:51.762Z,-4.20
2022-12-14T05:33:58.530Z,-4.30
2022-12-14T05:39:05.449Z,-4.10
2022-12-14T05:44:12.328Z,-4.00
2022-12-14T05:49:20.004Z,-4.00
2022-12-14T05:54:26.659Z,-4.00
2022-12-14T05:59:34.227Z,-4.00
2022-12-14T06:04:41.773Z,-3.90
2022-12-14T06:09:48.452Z,-4.00
2022-12-14T06:14:55.162Z,-4.10
2022-12-14T06:20:02.457Z,-4.30
2022-12-14T06:25:11.327Z,-4.20
2022-12-14T06:30:18.708Z,-4.20
2022-12-14T06:35:25.330Z,-4.00
2022-12-14T06:40:32.043Z,-4.00
2022-12-14T06:45:38.970Z,-4.00
2022-12-14T06:50:45.722Z,-4.00
2022-12-14T06:55:52.460Z,-3.90
2022-12-14T07:01:07.787Z,-3.90
2022-12-14T07:06:14.537Z,-3.90
2022-12-14T07:11:21.319Z,-4.00
2022-12-14T07:16:32.512Z,-3.80
2022-12-14T07:21:39.214Z,-3.80
2022-12-14T07:26:46.665Z,-3.80
2022-12-14T07:31:53.550Z,-3.80
2022-12-14T07:37:00.322Z,-3.70
2022-12-14T07:42:07.054Z,-3.60
2022-12-14T07:47:16.698Z,-3.70
2022-12-14T07:52:22.565Z,-3.70
2022-12-14T07:57:29.267Z,-3.60
2022-12-14T08:02:36.112Z,-3.50
2022-12-14T08:07:43.048Z,-3.50
2022-12-14T08:12:52.685Z,-3.60
2022-12-14T08:17:59.381Z,-3.50
2022-12-14T08:23:06.395Z,-3.50
2022-12-14T08:28:13.205Z,-3.40
2022-12-14T08:33:21.502Z,-3.40
2022-12-14T08:38:28.348Z,-3.50
2022-12-14T08:43:35.330Z,-3.40
2022-12-14T08:48:42.029Z,-3.60
2022-12-14T08:53:48.760Z,-3.40
2022-12-14T08:58:55.768Z,-3.30
2022-12-14T09:04:06.297Z,-3.40
2022-12-14T09:09:16.317Z,-3.60
2022-12-14T09:14:21.701Z,-3.50
2022-12-14T09:19:29.036Z,-3.40
2022-12-14T09:24:36.173Z,-3.50
2022-12-14T09:29:42.874Z,-3.40
2022-12-14T09:34:49.566Z,-3.10
2022-12-14T09:39:56.289Z,-2.90
2022-12-14T09:45:19.392Z,-3.00
2022-12-14T09:50:26.254Z,-3.00
2022-12-14T09:55:44.946Z,-3.10
2022-12-14T10:01:26.028Z,-2.90
2022-12-14T10:06:59.447Z,-3.00
2022-12-14T10:12:19.735Z,-3.30
2022-12-14T10:17:48.664Z,-3.20
2022-12-14T10:22:56.811Z,-2.90
2022-12-14T10:28:11.779Z,-2.80
2022-12-14T10:33:28.174Z,-2.80
2022-12-14T10:38:44.956Z,-2.50
2022-12-14T10:44:09.528Z,-2.40
2022-12-14T10:49:26.069Z,-2.60
2022-12-14T10:54:39.373Z,-2.50
2022-12-14T11:00:05.224Z,-2.40
2022-12-14T11:05:07.121Z,-2.20
2022-12-14T11:10:29.377Z,-2.20
2022-12-14T11:15:42.505Z,-2.40
2022-12-14T11:20:56.649Z,-2.30
2022-12-14T11:26:07.845Z,-2.10
2022-12-14T11:31:27.627Z,-2.00
2022-12-14T11:36:42.801Z,-1.80
2022-12-14T11:42:04.748Z,-1.40
2022-12-14T11:47:17.383Z,-1.40
2022-12-14T11:52:40.456Z,-1.40
2022-12-14T11:57:56.551Z,-1.30
2022-12-14T12:03:16.480Z,-1.20
2022-12-14T12:08:35.982Z,-1.20
2022-12-14T12:13:45.323Z,-1.30
2022-12-14T12:19:04.024Z,-1.20
2022-12-14T12:24:17.339Z,-1.30
2022-12-14T12:29:50.409Z,-1.20
2022-12-14T12:35:12.273Z,-1.20
2022-12-14T12:40:34.507Z,-1.40
2022-12-14T12:45:45.698Z,-1.30
2022-12-14T12:50:59.991Z,-1.40
2022-12-14T12:56:14.085Z,-1.30
2022-12-14T13:01:36.422Z,-1.20
2022-12-14T13:06:52.956Z,-1.40
2022-12-14T13:12:01.531Z,-1.30
2022-12-14T13:17:12.736Z,-1.60
2022-12-14T13:22:27.360Z,-1.40
2022-12-14T13:27:56.894Z,-1.50
2022-12-14T13:33:27.365Z,-1.40
2022-12-14T13:38:44.482Z,-1.50
2022-12-14T13:44:03.700Z,-1.50
2022-12-14T13:49:18.017Z,-1.40
2022-12-14T13:54:32.182Z,-1.60
2022-12-14T13:59:46.305Z,-1.50
2022-12-14T14:04:53.146Z,-1.40
2022-12-14T14:10:06.927Z,-1.40
2022-12-14T14:15:32.043Z,-1.50
2022-12-14T14:20:58.939Z,-1.50
2022-12-14T14:26:26.031Z,-1.70
2022-12-14T14:31:52.799Z,-1.60
2022-12-14T14:37:00.039Z,-1.70
2022-12-14T14:42:10.186Z,-1.90
2022-12-14T14:47:27.071Z,-1.90
2022-12-14T14:52:45.946Z,-1.90
2022-12-14T14:58:30.807Z,-2.00
2022-12-14T15:03:58.094Z,-1.90
2022-12-14T15:09:12.579Z,-2.00
2022-12-14T15:14:48.268Z,-2.00
2022-12-14T15:20:02.538Z,-2.30
2022-12-14T15:25:28.382Z,-2.30
2022-12-14T15:30:37.077Z,-2.30
2022-12-14T15:35:43.965Z,-2.50
2022-12-14T15:41:04.060Z,-2.40
2022-12-14T15:46:29.850Z,-2.50
2022-12-14T15:51:43.678Z,-2.60
2022-12-14T15:56:59.397Z,-2.50
2022-12-14T16:02:32.530Z,-2.50
2022-12-14T16:07:42.007Z,-2.80
2022-12-14T16:12:51.531Z,-3.00
2022-12-14T16:18:02.640Z,-3.00
2022-12-14T16:23:19.373Z,-3.00
2022-12-14T16:28:36.537Z,-3.10
2022-12-14T16:33:45.667Z,-3.30
2022-12-14T16:39:10.413Z,-3.20
2022-12-14T16:44:33.231Z,-3.20
2022-12-14T16:49:55.355Z,-3.10
2022-12-14T16:55:20.639Z,-3.30
2022-12-14T17:00:35.048Z,-3.40
2022-12-14T17:05:43.802Z,-3.40
2022-12-14T17:10:51.269Z,-3.30
2022-12-14T17:16:07.858Z,-3.40
2022-12-14T17:21:27.219Z,-3.40
2022-12-14T17:26:35.479Z,-3.40
2022-12-14T17:31:47.671Z,-3.40
2022-12-14T17:36:51.057Z,-3.40
2022-12-14T17:41:58.398Z,-3.40
2022-12-14T17:47:05.548Z,-3.40
2022-12-14T17:52:29.214Z,-3.40
2022-12-14T17:57:41.044Z,-3.30
2022-12-14T18:02:48.197Z,-3.30
2022-12-14T18:07:55.613Z,-3.30
2022-12-14T18:13:02.806Z,-3.30
2022-12-14T18:18:10.655Z,-3.30
2022-12-14T18:23:19.990Z,-3.30
2022-12-14T18:28:27.303Z,-3.30
2022-12-14T18:33:35.496Z,-3.40
2022-12-14T18:38:42.519Z,-3.20
2022-12-14T18:43:50.615Z,-3.30
2022-12-14T18:48:57.385Z,-3.30
2022-12-14T18:54:04.604Z,-3.20
2022-12-14T18:59:11.746Z,-3.30
2022-12-14T19:04:18.838Z,-3.20
2022-12-14T19:09:25.777Z,-3.20
2022-12-14T19:14:32.932Z,-3.20
2022-12-14T19:19:44.396Z,-3.00
2022-12-14T19:24:52.277Z,-2.90
2022-12-14T19:29:57.533Z,-3.00
2022-12-14T19:35:04.416Z,-3.10
2022-12-14T19:40:13.842Z,-3.00
2022-12-14T19:45:20.906Z,-3.00
2022-12-14T19:50:28.488Z,-2.90
2022-12-14T19:55:36.576Z,-2.90
2022-12-14T20:00:43.527Z,-3.00
2022-12-14T20:05:59.908Z,-2.90
2022-12-14T20:11:12.416Z,-3.10
2022-12-14T20:16:20.355Z,-3.20
2022-12-14T20:21:29.773Z,-3.10
2022-12-14T20:26:37.176Z,-3.10
2022-12-14T20:31:44.163Z,-3.20
2022-12-14T20:36:51.123Z,-3.20
2022-12-14T20:41:58.899Z,-3.20
2022-12-14T20:47:05.787Z,-3.10
2022-12-14T20:52:12.787Z,-3.10
2022-12-14T20:57:20.040Z,-3.20
2022-12-14T21:02:27.231Z,-3.30
2022-12-14T21:07:34.481Z,-3.30
2022-12-14T21:12:41.278Z,-3.20
2022-12-14T21:17:48.022Z,-3.20
2022-12-14T21:22:54.843Z,-3.20
2022-12-14T21:28:01.584Z,-3.20
2022-12-14T21:33:08.279Z,-3.30
2022-12-14T21:38:14.963Z,-3.00
2022-12-14T21:43:21.719Z,-3.00
2022-12-14T21:48:28.872Z,-3.10
2022-12-14T21:53:37.099Z,-3.00
2022-12-14T21:58:48.511Z,-2.90
2022-12-14T22:03:54.733Z,-2.70
2022-12-14T22:09:03.496Z,-2.60
2022-12-14T22:14:13.446Z,-2.40
2022-12-14T22:19:26.088Z,-2.40
2022-12-14T22:24:33.190Z,-2.50
2022-12-14T22:29:40.347Z,-2.50
2022-12-14T22:34:47.107Z,-2.60
2022-12-14T22:39:54.269Z,-2.50
2022-12-14T22:45:01.083Z,-2.40
2022-12-14T22:50:09.131Z,-2.30
2022-12-14T22:55:16.604Z,-2.10
2022-12-14T23:00:23.810Z,-2.10
2022-12-14T23:06:27.402Z,-2.10
2022-12-14T23:11:52.381Z,-2.00
2022-12-14T23:17:18.741Z,-1.90
2022-12-14T23:22:42.609Z,-1.90
2022-12-14T23:28:07.024Z,-1.80
2022-12-14T23:33:32.019Z,-1.80
2022-12-14T23:38:57.026Z,-1.80
2022-12-14T23:44:21.830Z,-1.70
2022-12-14T23:49:45.992Z,-1.70
2022-12-14T23:55:10.481Z,-1.60
